Terminal Aerodrome Forecast
Issued by NWS

Home | Current Version | Previous Version | Text Only | Print | Product List | Glossary On
Versions: 1 2 3 4 5 6 7 8 9 10 11 12 13 14 15
000
FTUS46 KSEW 182320
TAFPAE
TAF
KPAE 182320Z 1900/1924 15015G25KT P6SM -SHRA BKN040 BKN080
      TEMPO 1900/1904 4SM SHRA BR OVC025
     FM190600 18012KT P6SM VCSH BKN035 BKN080
     FM191700 18006KT P6SM SCT040 SCT100=

USA.gov is the U.S. government's official web portal to all federal, state and local government web resources and services.